sensor_id;sensor_type;location;lat;lon;timestamp;P1;durP1;ratioP1;P2;durP2;ratioP2
2756;SDS011;1386;50.862;6.494;2022-07-29T00:01:31;8.53;;;2.80;;
2756;SDS011;1386;50.862;6.494;2022-07-29T00:03:58;9.50;;;2.17;;
2756;SDS011;1386;50.862;6.494;2022-07-29T00:06:25;9.03;;;2.57;;
2756;SDS011;1386;50.862;6.494;2022-07-29T00:08:52;7.97;;;2.70;;
2756;SDS011;1386;50.862;6.494;2022-07-29T00:11:20;5.70;;;2.40;;
2756;SDS011;1386;50.862;6.494;2022-07-29T00:13:47;6.90;;;2.20;;
2756;SDS011;1386;50.862;6.494;2022-07-29T00:16:15;6.30;;;1.97;;
2756;SDS011;1386;50.862;6.494;2022-07-29T00:18:42;5.80;;;1.73;;
2756;SDS011;1386;50.862;6.494;2022-07-29T00:21:09;8.00;;;2.10;;
2756;SDS011;1386;50.862;6.494;2022-07-29T00:23:36;5.20;;;1.90;;
2756;SDS011;1386;50.862;6.494;2022-07-29T00:26:02;5.47;;;2.10;;
2756;SDS011;1386;50.862;6.494;2022-07-29T00:28:29;12.97;;;2.50;;
2756;SDS011;1386;50.862;6.494;2022-07-29T00:30:56;10.13;;;2.53;;
2756;SDS011;1386;50.862;6.494;2022-07-29T00:33:25;7.67;;;2.97;;
2756;SDS011;1386;50.862;6.494;2022-07-29T00:35:51;15.40;;;2.50;;
2756;SDS011;1386;50.862;6.494;2022-07-29T00:38:18;6.63;;;2.63;;
2756;SDS011;1386;50.862;6.494;2022-07-29T00:40:46;11.13;;;2.43;;
2756;SDS011;1386;50.862;6.494;2022-07-29T00:43:13;10.87;;;2.40;;
2756;SDS011;1386;50.862;6.494;2022-07-29T00:45:40;4.30;;;1.83;;
2756;SDS011;1386;50.862;6.494;2022-07-29T00:48:08;8.93;;;2.47;;
2756;SDS011;1386;50.862;6.494;2022-07-29T00:50:36;7.03;;;1.97;;
2756;SDS011;1386;50.862;6.494;2022-07-29T00:53:04;9.40;;;2.20;;
2756;SDS011;1386;50.862;6.494;2022-07-29T00:55:32;5.47;;;2.43;;
2756;SDS011;1386;50.862;6.494;2022-07-29T00:57:59;11.40;;;2.60;;
2756;SDS011;1386;50.862;6.494;2022-07-29T01:00:27;5.73;;;2.47;;
2756;SDS011;1386;50.862;6.494;2022-07-29T01:02:55;11.43;;;3.17;;
2756;SDS011;1386;50.862;6.494;2022-07-29T01:05:23;11.73;;;2.70;;
2756;SDS011;1386;50.862;6.494;2022-07-29T01:07:52;7.80;;;2.20;;
2756;SDS011;1386;50.862;6.494;2022-07-29T01:10:20;10.33;;;2.70;;
2756;SDS011;1386;50.862;6.494;2022-07-29T01:12:48;12.73;;;2.30;;
2756;SDS011;1386;50.862;6.494;2022-07-29T01:15:17;13.60;;;2.13;;
2756;SDS011;1386;50.862;6.494;2022-07-29T01:17:44;9.47;;;2.83;;
2756;SDS011;1386;50.862;6.494;2022-07-29T01:20:17;9.60;;;2.20;;
2756;SDS011;1386;50.862;6.494;2022-07-29T01:26:11;12.23;;;2.30;;
2756;SDS011;1386;50.862;6.494;2022-07-29T01:31:43;10.10;;;2.37;;
2756;SDS011;1386;50.862;6.494;2022-07-29T01:34:15;15.30;;;2.93;;
2756;SDS011;1386;50.862;6.494;2022-07-29T01:36:47;4.30;;;2.10;;
2756;SDS011;1386;50.862;6.494;2022-07-29T01:39:18;5.37;;;2.43;;
2756;SDS011;1386;50.862;6.494;2022-07-29T01:41:50;13.53;;;2.40;;
2756;SDS011;1386;50.862;6.494;2022-07-29T01:44:26;8.70;;;2.27;;
2756;SDS011;1386;50.862;6.494;2022-07-29T01:47:00;9.10;;;2.57;;
2756;SDS011;1386;50.862;6.494;2022-07-29T01:49:32;12.70;;;2.43;;
2756;SDS011;1386;50.862;6.494;2022-07-29T01:52:03;3.97;;;2.10;;
2756;SDS011;1386;50.862;6.494;2022-07-29T01:54:35;7.37;;;2.63;;
2756;SDS011;1386;50.862;6.494;2022-07-29T01:57:08;12.13;;;2.97;;
2756;SDS011;1386;50.862;6.494;2022-07-29T01:59:38;5.00;;;2.27;;
2756;SDS011;1386;50.862;6.494;2022-07-29T02:02:06;4.43;;;1.83;;
2756;SDS011;1386;50.862;6.494;2022-07-29T02:04:35;5.77;;;2.20;;
2756;SDS011;1386;50.862;6.494;2022-07-29T02:07:04;6.13;;;2.97;;
2756;SDS011;1386;50.862;6.494;2022-07-29T02:09:34;7.30;;;2.30;;
2756;SDS011;1386;50.862;6.494;2022-07-29T02:12:04;5.50;;;2.60;;
2756;SDS011;1386;50.862;6.494;2022-07-29T02:14:36;5.27;;;1.80;;
2756;SDS011;1386;50.862;6.494;2022-07-29T02:17:06;6.40;;;2.27;;
2756;SDS011;1386;50.862;6.494;2022-07-29T02:19:33;5.87;;;2.27;;
2756;SDS011;1386;50.862;6.494;2022-07-29T02:22:03;7.20;;;2.37;;
2756;SDS011;1386;50.862;6.494;2022-07-29T02:24:31;8.17;;;2.07;;
2756;SDS011;1386;50.862;6.494;2022-07-29T02:27:01;6.67;;;2.17;;
2756;SDS011;1386;50.862;6.494;2022-07-29T02:29:30;3.00;;;1.83;;
2756;SDS011;1386;50.862;6.494;2022-07-29T02:31:58;5.07;;;2.10;;
2756;SDS011;1386;50.862;6.494;2022-07-29T02:34:30;5.03;;;2.50;;
2756;SDS011;1386;50.862;6.494;2022-07-29T02:36:59;3.13;;;1.80;;
2756;SDS011;1386;50.862;6.494;2022-07-29T02:39:26;9.63;;;2.70;;
2756;SDS011;1386;50.862;6.494;2022-07-29T02:41:57;4.07;;;1.90;;
2756;SDS011;1386;50.862;6.494;2022-07-29T02:44:29;6.47;;;2.03;;
2756;SDS011;1386;50.862;6.494;2022-07-29T02:46:58;4.30;;;2.00;;
2756;SDS011;1386;50.862;6.494;2022-07-29T02:49:34;5.50;;;2.57;;
2756;SDS011;1386;50.862;6.494;2022-07-29T02:52:03;3.17;;;1.60;;
2756;SDS011;1386;50.862;6.494;2022-07-29T02:54:37;4.07;;;2.53;;
2756;SDS011;1386;50.862;6.494;2022-07-29T02:57:09;13.03;;;2.60;;
2756;SDS011;1386;50.862;6.494;2022-07-29T02:59:42;6.10;;;2.17;;
2756;SDS011;1386;50.862;6.494;2022-07-29T03:02:11;5.10;;;2.60;;
2756;SDS011;1386;50.862;6.494;2022-07-29T03:04:41;9.77;;;2.80;;
2756;SDS011;1386;50.862;6.494;2022-07-29T03:07:10;9.87;;;2.50;;
2756;SDS011;1386;50.862;6.494;2022-07-29T03:09:39;15.10;;;2.77;;
2756;SDS011;1386;50.862;6.494;2022-07-29T03:12:08;11.77;;;3.20;;
2756;SDS011;1386;50.862;6.494;2022-07-29T03:14:35;7.60;;;2.80;;
2756;SDS011;1386;50.862;6.494;2022-07-29T03:17:04;11.33;;;3.00;;
2756;SDS011;1386;50.862;6.494;2022-07-29T03:19:32;10.53;;;3.07;;
2756;SDS011;1386;50.862;6.494;2022-07-29T03:22:01;13.10;;;3.03;;
2756;SDS011;1386;50.862;6.494;2022-07-29T03:24:28;18.33;;;3.67;;
2756;SDS011;1386;50.862;6.494;2022-07-29T03:26:57;15.57;;;2.57;;
2756;SDS011;1386;50.862;6.494;2022-07-29T03:29:24;19.43;;;4.00;;
2756;SDS011;1386;50.862;6.494;2022-07-29T03:31:51;10.90;;;3.17;;
2756;SDS011;1386;50.862;6.494;2022-07-29T03:34:19;11.07;;;2.73;;
2756;SDS011;1386;50.862;6.494;2022-07-29T03:36:46;9.13;;;3.27;;
2756;SDS011;1386;50.862;6.494;2022-07-29T03:39:15;13.90;;;3.87;;
2756;SDS011;1386;50.862;6.494;2022-07-29T03:41:47;9.47;;;3.30;;
2756;SDS011;1386;50.862;6.494;2022-07-29T03:44:15;11.23;;;3.10;;
2756;SDS011;1386;50.862;6.494;2022-07-29T03:46:43;7.60;;;2.70;;
2756;SDS011;1386;50.862;6.494;2022-07-29T03:49:12;6.80;;;2.20;;
2756;SDS011;1386;50.862;6.494;2022-07-29T03:51:42;3.80;;;2.50;;
2756;SDS011;1386;50.862;6.494;2022-07-29T03:54:09;7.17;;;2.33;;
2756;SDS011;1386;50.862;6.494;2022-07-29T03:56:40;11.47;;;2.47;;
2756;SDS011;1386;50.862;6.494;2022-07-29T03:59:11;9.00;;;3.13;;
2756;SDS011;1386;50.862;6.494;2022-07-29T04:01:41;6.57;;;2.80;;
2756;SDS011;1386;50.862;6.494;2022-07-29T04:04:09;10.23;;;2.53;;
2756;SDS011;1386;50.862;6.494;2022-07-29T04:06:37;7.10;;;2.57;;
2756;SDS011;1386;50.862;6.494;2022-07-29T04:09:05;6.33;;;2.43;;
2756;SDS011;1386;50.862;6.494;2022-07-29T04:11:32;7.67;;;2.33;;
2756;SDS011;1386;50.862;6.494;2022-07-29T04:14:01;6.50;;;2.77;;
2756;SDS011;1386;50.862;6.494;2022-07-29T04:16:28;8.03;;;2.30;;
2756;SDS011;1386;50.862;6.494;2022-07-29T04:18:55;4.27;;;1.97;;
2756;SDS011;1386;50.862;6.494;2022-07-29T04:21:22;4.97;;;2.10;;
2756;SDS011;1386;50.862;6.494;2022-07-29T04:23:49;4.37;;;2.10;;
2756;SDS011;1386;50.862;6.494;2022-07-29T04:26:16;4.70;;;2.00;;
2756;SDS011;1386;50.862;6.494;2022-07-29T04:28:44;6.43;;;1.90;;
2756;SDS011;1386;50.862;6.494;2022-07-29T04:31:12;11.37;;;2.20;;
2756;SDS011;1386;50.862;6.494;2022-07-29T04:33:39;5.17;;;2.10;;
2756;SDS011;1386;50.862;6.494;2022-07-29T04:36:06;12.97;;;2.30;;
2756;SDS011;1386;50.862;6.494;2022-07-29T04:41:33;2.37;;;1.83;;
2756;SDS011;1386;50.862;6.494;2022-07-29T04:44:00;4.27;;;2.40;;
2756;SDS011;1386;50.862;6.494;2022-07-29T04:46:31;9.33;;;2.50;;
2756;SDS011;1386;50.862;6.494;2022-07-29T04:48:58;3.93;;;2.50;;
2756;SDS011;1386;50.862;6.494;2022-07-29T04:51:28;9.97;;;2.30;;
2756;SDS011;1386;50.862;6.494;2022-07-29T04:53:55;4.20;;;2.30;;
2756;SDS011;1386;50.862;6.494;2022-07-29T04:56:22;6.83;;;2.17;;
2756;SDS011;1386;50.862;6.494;2022-07-29T04:58:49;7.20;;;2.00;;
2756;SDS011;1386;50.862;6.494;2022-07-29T05:01:19;8.00;;;2.40;;
2756;SDS011;1386;50.862;6.494;2022-07-29T05:03:48;7.30;;;2.63;;
2756;SDS011;1386;50.862;6.494;2022-07-29T05:06:15;5.60;;;2.70;;
2756;SDS011;1386;50.862;6.494;2022-07-29T05:08:42;9.10;;;2.23;;
2756;SDS011;1386;50.862;6.494;2022-07-29T05:11:08;5.77;;;3.20;;
2756;SDS011;1386;50.862;6.494;2022-07-29T05:13:36;5.10;;;2.00;;
2756;SDS011;1386;50.862;6.494;2022-07-29T05:16:03;5.63;;;2.33;;
2756;SDS011;1386;50.862;6.494;2022-07-29T05:18:30;7.83;;;2.90;;
2756;SDS011;1386;50.862;6.494;2022-07-29T05:20:58;3.27;;;1.87;;
2756;SDS011;1386;50.862;6.494;2022-07-29T05:23:25;5.10;;;2.20;;
2756;SDS011;1386;50.862;6.494;2022-07-29T05:25:52;8.13;;;2.50;;
2756;SDS011;1386;50.862;6.494;2022-07-29T05:28:19;3.60;;;2.30;;
2756;SDS011;1386;50.862;6.494;2022-07-29T05:30:46;3.17;;;2.60;;
2756;SDS011;1386;50.862;6.494;2022-07-29T05:33:14;7.30;;;2.67;;
2756;SDS011;1386;50.862;6.494;2022-07-29T05:35:41;11.10;;;3.03;;
2756;SDS011;1386;50.862;6.494;2022-07-29T05:38:09;9.57;;;2.57;;
2756;SDS011;1386;50.862;6.494;2022-07-29T05:40:36;7.03;;;2.60;;
2756;SDS011;1386;50.862;6.494;2022-07-29T05:43:03;6.70;;;3.10;;
2756;SDS011;1386;50.862;6.494;2022-07-29T05:45:30;5.13;;;2.83;;
2756;SDS011;1386;50.862;6.494;2022-07-29T05:47:57;4.87;;;2.70;;
2756;SDS011;1386;50.862;6.494;2022-07-29T05:50:24;5.83;;;2.63;;
2756;SDS011;1386;50.862;6.494;2022-07-29T05:52:50;6.93;;;2.60;;
2756;SDS011;1386;50.862;6.494;2022-07-29T05:55:19;8.77;;;2.93;;
2756;SDS011;1386;50.862;6.494;2022-07-29T05:57:45;9.67;;;3.57;;
2756;SDS011;1386;50.862;6.494;2022-07-29T06:00:12;8.40;;;3.87;;
2756;SDS011;1386;50.862;6.494;2022-07-29T06:02:40;7.97;;;3.03;;
2756;SDS011;1386;50.862;6.494;2022-07-29T06:05:07;12.03;;;3.43;;
2756;SDS011;1386;50.862;6.494;2022-07-29T06:07:34;9.23;;;3.50;;
2756;SDS011;1386;50.862;6.494;2022-07-29T06:10:01;11.20;;;3.23;;
2756;SDS011;1386;50.862;6.494;2022-07-29T06:12:29;11.87;;;3.23;;
2756;SDS011;1386;50.862;6.494;2022-07-29T06:14:56;17.20;;;3.87;;
2756;SDS011;1386;50.862;6.494;2022-07-29T06:17:23;11.47;;;2.80;;
2756;SDS011;1386;50.862;6.494;2022-07-29T06:19:50;16.13;;;4.13;;
2756;SDS011;1386;50.862;6.494;2022-07-29T06:22:17;6.67;;;3.87;;
2756;SDS011;1386;50.862;6.494;2022-07-29T06:24:44;5.70;;;3.77;;
2756;SDS011;1386;50.862;6.494;2022-07-29T06:27:11;10.67;;;4.10;;
2756;SDS011;1386;50.862;6.494;2022-07-29T06:29:39;7.13;;;4.00;;
2756;SDS011;1386;50.862;6.494;2022-07-29T06:32:06;9.33;;;4.30;;
2756;SDS011;1386;50.862;6.494;2022-07-29T06:34:34;8.30;;;3.70;;
2756;SDS011;1386;50.862;6.494;2022-07-29T06:37:05;7.97;;;3.20;;
2756;SDS011;1386;50.862;6.494;2022-07-29T06:39:33;11.87;;;3.77;;
2756;SDS011;1386;50.862;6.494;2022-07-29T06:42:00;14.27;;;4.80;;
2756;SDS011;1386;50.862;6.494;2022-07-29T06:44:27;12.30;;;3.87;;
2756;SDS011;1386;50.862;6.494;2022-07-29T06:46:56;7.17;;;3.17;;
2756;SDS011;1386;50.862;6.494;2022-07-29T06:49:23;10.73;;;3.97;;
2756;SDS011;1386;50.862;6.494;2022-07-29T06:51:51;15.07;;;4.50;;
2756;SDS011;1386;50.862;6.494;2022-07-29T06:54:17;15.33;;;3.77;;
2756;SDS011;1386;50.862;6.494;2022-07-29T06:56:45;13.70;;;4.80;;
2756;SDS011;1386;50.862;6.494;2022-07-29T06:59:12;9.93;;;4.17;;
2756;SDS011;1386;50.862;6.494;2022-07-29T07:01:42;16.30;;;4.50;;
2756;SDS011;1386;50.862;6.494;2022-07-29T07:04:10;12.83;;;4.63;;
2756;SDS011;1386;50.862;6.494;2022-07-29T07:06:38;10.50;;;4.03;;
2756;SDS011;1386;50.862;6.494;2022-07-29T07:09:05;8.70;;;3.70;;
2756;SDS011;1386;50.862;6.494;2022-07-29T07:11:32;7.53;;;4.00;;
2756;SDS011;1386;50.862;6.494;2022-07-29T07:13:59;6.00;;;3.70;;
2756;SDS011;1386;50.862;6.494;2022-07-29T07:16:26;13.70;;;3.73;;
2756;SDS011;1386;50.862;6.494;2022-07-29T07:18:53;6.73;;;4.00;;
2756;SDS011;1386;50.862;6.494;2022-07-29T07:21:21;7.13;;;4.70;;
2756;SDS011;1386;50.862;6.494;2022-07-29T07:23:48;7.10;;;4.47;;
2756;SDS011;1386;50.862;6.494;2022-07-29T07:26:14;12.63;;;6.23;;
2756;SDS011;1386;50.862;6.494;2022-07-29T07:28:41;10.73;;;6.30;;
2756;SDS011;1386;50.862;6.494;2022-07-29T07:31:08;19.60;;;8.40;;
2756;SDS011;1386;50.862;6.494;2022-07-29T07:33:35;10.63;;;5.10;;
2756;SDS011;1386;50.862;6.494;2022-07-29T07:36:02;7.27;;;4.90;;
2756;SDS011;1386;50.862;6.494;2022-07-29T07:38:30;26.60;;;8.67;;
2756;SDS011;1386;50.862;6.494;2022-07-29T07:40:57;52.03;;;20.87;;
2756;SDS011;1386;50.862;6.494;2022-07-29T07:43:24;11.40;;;7.33;;
2756;SDS011;1386;50.862;6.494;2022-07-29T07:45:51;10.30;;;5.90;;
2756;SDS011;1386;50.862;6.494;2022-07-29T07:48:18;11.60;;;5.03;;
2756;SDS011;1386;50.862;6.494;2022-07-29T07:50:45;14.17;;;5.40;;
2756;SDS011;1386;50.862;6.494;2022-07-29T07:53:14;5.53;;;4.63;;
2756;SDS011;1386;50.862;6.494;2022-07-29T07:55:42;8.23;;;4.73;;
2756;SDS011;1386;50.862;6.494;2022-07-29T07:58:10;15.20;;;6.80;;
2756;SDS011;1386;50.862;6.494;2022-07-29T08:00:37;18.40;;;8.93;;
2756;SDS011;1386;50.862;6.494;2022-07-29T08:03:04;8.87;;;5.70;;
2756;SDS011;1386;50.862;6.494;2022-07-29T08:05:31;14.17;;;8.37;;
2756;SDS011;1386;50.862;6.494;2022-07-29T08:07:58;14.03;;;9.13;;
2756;SDS011;1386;50.862;6.494;2022-07-29T08:10:32;14.60;;;7.33;;
2756;SDS011;1386;50.862;6.494;2022-07-29T08:13:25;7.07;;;4.70;;
2756;SDS011;1386;50.862;6.494;2022-07-29T08:15:55;7.23;;;5.00;;
2756;SDS011;1386;50.862;6.494;2022-07-29T08:21:05;10.10;;;4.80;;
2756;SDS011;1386;50.862;6.494;2022-07-29T08:37:28;8.63;;;4.77;;
2756;SDS011;1386;50.862;6.494;2022-07-29T08:46:37;7.70;;;4.53;;
2756;SDS011;1386;50.862;6.494;2022-07-29T08:49:04;5.07;;;4.57;;
2756;SDS011;1386;50.862;6.494;2022-07-29T08:51:31;4.43;;;3.40;;
2756;SDS011;1386;50.862;6.494;2022-07-29T08:54:02;7.33;;;3.90;;
2756;SDS011;1386;50.862;6.494;2022-07-29T08:56:29;8.90;;;4.50;;
2756;SDS011;1386;50.862;6.494;2022-07-29T08:58:57;8.60;;;3.60;;
2756;SDS011;1386;50.862;6.494;2022-07-29T09:01:25;4.43;;;2.93;;
2756;SDS011;1386;50.862;6.494;2022-07-29T09:03:56;5.60;;;3.10;;
2756;SDS011;1386;50.862;6.494;2022-07-29T09:06:26;4.70;;;3.30;;
2756;SDS011;1386;50.862;6.494;2022-07-29T09:08:58;8.40;;;3.90;;
2756;SDS011;1386;50.862;6.494;2022-07-29T09:11:27;7.50;;;3.50;;
2756;SDS011;1386;50.862;6.494;2022-07-29T09:13:54;5.70;;;4.27;;
2756;SDS011;1386;50.862;6.494;2022-07-29T09:16:21;5.20;;;3.67;;
2756;SDS011;1386;50.862;6.494;2022-07-29T09:18:48;4.23;;;3.50;;
2756;SDS011;1386;50.862;6.494;2022-07-29T09:21:15;6.40;;;3.70;;
2756;SDS011;1386;50.862;6.494;2022-07-29T09:24:02;7.20;;;3.40;;
2756;SDS011;1386;50.862;6.494;2022-07-29T09:26:33;6.20;;;3.80;;
2756;SDS011;1386;50.862;6.494;2022-07-29T09:29:07;5.83;;;4.00;;
2756;SDS011;1386;50.862;6.494;2022-07-29T09:31:36;5.10;;;3.50;;
2756;SDS011;1386;50.862;6.494;2022-07-29T09:34:05;7.20;;;3.70;;
2756;SDS011;1386;50.862;6.494;2022-07-29T09:36:38;6.73;;;3.00;;
2756;SDS011;1386;50.862;6.494;2022-07-29T09:39:06;4.23;;;3.10;;
2756;SDS011;1386;50.862;6.494;2022-07-29T09:41:44;5.40;;;3.77;;
2756;SDS011;1386;50.862;6.494;2022-07-29T09:44:12;5.03;;;3.27;;
2756;SDS011;1386;50.862;6.494;2022-07-29T09:46:40;7.70;;;3.40;;
2756;SDS011;1386;50.862;6.494;2022-07-29T09:49:08;11.40;;;3.73;;
2756;SDS011;1386;50.862;6.494;2022-07-29T09:51:36;8.55;;;3.33;;
2756;SDS011;1386;50.862;6.494;2022-07-29T09:54:09;7.00;;;3.57;;
2756;SDS011;1386;50.862;6.494;2022-07-29T09:56:53;6.13;;;3.83;;
2756;SDS011;1386;50.862;6.494;2022-07-29T09:59:22;4.97;;;2.93;;
2756;SDS011;1386;50.862;6.494;2022-07-29T10:01:55;5.60;;;3.10;;
2756;SDS011;1386;50.862;6.494;2022-07-29T10:04:35;6.70;;;3.37;;
2756;SDS011;1386;50.862;6.494;2022-07-29T10:07:04;5.13;;;2.87;;
2756;SDS011;1386;50.862;6.494;2022-07-29T10:09:31;7.57;;;2.80;;
2756;SDS011;1386;50.862;6.494;2022-07-29T10:12:08;16.53;;;3.27;;
2756;SDS011;1386;50.862;6.494;2022-07-29T10:14:36;6.67;;;2.83;;
2756;SDS011;1386;50.862;6.494;2022-07-29T10:17:04;5.33;;;3.60;;
2756;SDS011;1386;50.862;6.494;2022-07-29T10:19:32;11.13;;;4.03;;
2756;SDS011;1386;50.862;6.494;2022-07-29T10:22:01;8.90;;;3.60;;
2756;SDS011;1386;50.862;6.494;2022-07-29T10:24:30;6.80;;;3.70;;
2756;SDS011;1386;50.862;6.494;2022-07-29T10:26:58;8.10;;;3.67;;
2756;SDS011;1386;50.862;6.494;2022-07-29T10:29:31;5.60;;;2.70;;
2756;SDS011;1386;50.862;6.494;2022-07-29T10:32:05;4.13;;;2.23;;
2756;SDS011;1386;50.862;6.494;2022-07-29T10:34:52;8.60;;;2.60;;
2756;SDS011;1386;50.862;6.494;2022-07-29T10:37:35;5.33;;;2.77;;
2756;SDS011;1386;50.862;6.494;2022-07-29T10:40:15;9.87;;;3.57;;
2756;SDS011;1386;50.862;6.494;2022-07-29T10:43:08;8.23;;;2.93;;
2756;SDS011;1386;50.862;6.494;2022-07-29T10:45:45;6.87;;;3.20;;
2756;SDS011;1386;50.862;6.494;2022-07-29T10:48:16;5.20;;;2.40;;
2756;SDS011;1386;50.862;6.494;2022-07-29T10:50:52;6.77;;;3.50;;
2756;SDS011;1386;50.862;6.494;2022-07-29T10:53:21;7.47;;;3.23;;
2756;SDS011;1386;50.862;6.494;2022-07-29T10:58:23;8.17;;;3.30;;
2756;SDS011;1386;50.862;6.494;2022-07-29T11:00:52;14.10;;;3.20;;
2756;SDS011;1386;50.862;6.494;2022-07-29T11:06:10;9.03;;;3.80;;
2756;SDS011;1386;50.862;6.494;2022-07-29T11:08:37;9.80;;;3.00;;
2756;SDS011;1386;50.862;6.494;2022-07-29T11:14:05;6.33;;;3.23;;
2756;SDS011;1386;50.862;6.494;2022-07-29T11:19:31;5.83;;;3.57;;
2756;SDS011;1386;50.862;6.494;2022-07-29T11:21:58;6.40;;;4.00;;
2756;SDS011;1386;50.862;6.494;2022-07-29T11:24:29;8.10;;;3.90;;
2756;SDS011;1386;50.862;6.494;2022-07-29T11:29:57;5.17;;;3.33;;
2756;SDS011;1386;50.862;6.494;2022-07-29T11:32:35;6.40;;;3.47;;
2756;SDS011;1386;50.862;6.494;2022-07-29T11:35:16;7.73;;;3.07;;
2756;SDS011;1386;50.862;6.494;2022-07-29T11:43:59;5.03;;;2.80;;
2756;SDS011;1386;50.862;6.494;2022-07-29T11:49:21;6.63;;;3.37;;
2756;SDS011;1386;50.862;6.494;2022-07-29T11:51:50;7.80;;;3.40;;
2756;SDS011;1386;50.862;6.494;2022-07-29T11:54:21;11.03;;;2.67;;
2756;SDS011;1386;50.862;6.494;2022-07-29T11:56:51;6.60;;;2.60;;
2756;SDS011;1386;50.862;6.494;2022-07-29T11:59:19;7.73;;;2.87;;
2756;SDS011;1386;50.862;6.494;2022-07-29T12:01:55;7.00;;;2.97;;
2756;SDS011;1386;50.862;6.494;2022-07-29T12:04:24;5.00;;;4.13;;
2756;SDS011;1386;50.862;6.494;2022-07-29T12:06:56;6.37;;;3.60;;
2756;SDS011;1386;50.862;6.494;2022-07-29T12:09:23;8.50;;;3.30;;
2756;SDS011;1386;50.862;6.494;2022-07-29T12:11:55;7.50;;;3.40;;
2756;SDS011;1386;50.862;6.494;2022-07-29T12:14:27;11.00;;;3.63;;
2756;SDS011;1386;50.862;6.494;2022-07-29T12:16:58;5.37;;;3.10;;
2756;SDS011;1386;50.862;6.494;2022-07-29T12:19:27;5.53;;;3.20;;
2756;SDS011;1386;50.862;6.494;2022-07-29T12:21:55;9.33;;;3.50;;
2756;SDS011;1386;50.862;6.494;2022-07-29T12:24:24;8.73;;;3.80;;
2756;SDS011;1386;50.862;6.494;2022-07-29T12:26:51;8.30;;;2.97;;
2756;SDS011;1386;50.862;6.494;2022-07-29T12:29:20;5.60;;;2.87;;
2756;SDS011;1386;50.862;6.494;2022-07-29T12:31:51;5.47;;;2.70;;
2756;SDS011;1386;50.862;6.494;2022-07-29T12:34:19;4.50;;;2.37;;
2756;SDS011;1386;50.862;6.494;2022-07-29T12:36:50;4.40;;;2.40;;
2756;SDS011;1386;50.862;6.494;2022-07-29T12:39:17;4.60;;;2.50;;
2756;SDS011;1386;50.862;6.494;2022-07-29T12:41:45;4.83;;;2.47;;
2756;SDS011;1386;50.862;6.494;2022-07-29T12:44:12;10.50;;;3.23;;
2756;SDS011;1386;50.862;6.494;2022-07-29T12:46:39;5.30;;;3.10;;
2756;SDS011;1386;50.862;6.494;2022-07-29T12:49:06;4.80;;;3.43;;
2756;SDS011;1386;50.862;6.494;2022-07-29T12:51:35;7.20;;;2.80;;
2756;SDS011;1386;50.862;6.494;2022-07-29T12:54:05;8.20;;;2.60;;
2756;SDS011;1386;50.862;6.494;2022-07-29T12:56:35;7.83;;;2.63;;
2756;SDS011;1386;50.862;6.494;2022-07-29T12:59:14;6.40;;;3.03;;
2756;SDS011;1386;50.862;6.494;2022-07-29T13:01:52;7.10;;;3.20;;
2756;SDS011;1386;50.862;6.494;2022-07-29T13:04:37;6.30;;;3.03;;
2756;SDS011;1386;50.862;6.494;2022-07-29T13:07:06;5.13;;;2.47;;
2756;SDS011;1386;50.862;6.494;2022-07-29T13:09:39;7.40;;;2.83;;
2756;SDS011;1386;50.862;6.494;2022-07-29T13:12:13;7.60;;;2.93;;
2756;SDS011;1386;50.862;6.494;2022-07-29T13:14:45;5.43;;;2.47;;
2756;SDS011;1386;50.862;6.494;2022-07-29T13:17:40;6.10;;;2.70;;
2756;SDS011;1386;50.862;6.494;2022-07-29T13:20:36;5.83;;;2.47;;
2756;SDS011;1386;50.862;6.494;2022-07-29T13:23:04;5.47;;;2.63;;
2756;SDS011;1386;50.862;6.494;2022-07-29T13:25:48;8.00;;;2.60;;
2756;SDS011;1386;50.862;6.494;2022-07-29T13:28:21;9.03;;;3.00;;
2756;SDS011;1386;50.862;6.494;2022-07-29T13:33:59;7.43;;;2.07;;
2756;SDS011;1386;50.862;6.494;2022-07-29T13:40:19;3.53;;;2.00;;
2756;SDS011;1386;50.862;6.494;2022-07-29T13:43:05;3.63;;;2.30;;
2756;SDS011;1386;50.862;6.494;2022-07-29T13:46:54;5.23;;;2.50;;
2756;SDS011;1386;50.862;6.494;2022-07-29T16:20:34;2.43;;;1.80;;
2756;SDS011;1386;50.862;6.494;2022-07-29T16:23:06;2.83;;;1.90;;
2756;SDS011;1386;50.862;6.494;2022-07-29T16:25:38;5.73;;;2.70;;
2756;SDS011;1386;50.862;6.494;2022-07-29T16:35:25;3.97;;;2.10;;
2756;SDS011;1386;50.862;6.494;2022-07-29T16:42:01;5.47;;;2.77;;
2756;SDS011;1386;50.862;6.494;2022-07-29T16:44:40;3.03;;;2.50;;
2756;SDS011;1386;50.862;6.494;2022-07-29T16:47:44;3.87;;;2.83;;
2756;SDS011;1386;50.862;6.494;2022-07-29T16:50:37;5.13;;;2.47;;
2756;SDS011;1386;50.862;6.494;2022-07-29T16:53:04;4.20;;;2.93;;
2756;SDS011;1386;50.862;6.494;2022-07-29T16:55:39;5.00;;;3.07;;
2756;SDS011;1386;50.862;6.494;2022-07-29T16:58:14;3.00;;;2.70;;
2756;SDS011;1386;50.862;6.494;2022-07-29T17:00:56;4.70;;;2.77;;
2756;SDS011;1386;50.862;6.494;2022-07-29T23:15:19;10.13;;;5.37;;
2756;SDS011;1386;50.862;6.494;2022-07-29T23:17:46;7.93;;;5.40;;
2756;SDS011;1386;50.862;6.494;2022-07-29T23:20:13;10.60;;;5.53;;
2756;SDS011;1386;50.862;6.494;2022-07-29T23:22:40;15.13;;;5.77;;
2756;SDS011;1386;50.862;6.494;2022-07-29T23:25:07;9.53;;;5.10;;
2756;SDS011;1386;50.862;6.494;2022-07-29T23:27:34;9.20;;;5.03;;
2756;SDS011;1386;50.862;6.494;2022-07-29T23:30:01;11.53;;;5.47;;
2756;SDS011;1386;50.862;6.494;2022-07-29T23:32:30;6.70;;;4.93;;
2756;SDS011;1386;50.862;6.494;2022-07-29T23:34:57;7.07;;;5.20;;
2756;SDS011;1386;50.862;6.494;2022-07-29T23:37:25;11.93;;;5.00;;
2756;SDS011;1386;50.862;6.494;2022-07-29T23:40:05;11.70;;;5.90;;
2756;SDS011;1386;50.862;6.494;2022-07-29T23:42:33;8.73;;;5.27;;
2756;SDS011;1386;50.862;6.494;2022-07-29T23:45:00;13.23;;;5.60;;
2756;SDS011;1386;50.862;6.494;2022-07-29T23:47:27;12.37;;;5.37;;
2756;SDS011;1386;50.862;6.494;2022-07-29T23:49:55;9.37;;;5.13;;
2756;SDS011;1386;50.862;6.494;2022-07-29T23:56:14;8.10;;;4.90;;
